createdAt,value
2023-03-24T00:00:50.699Z,9.70
2023-03-24T00:03:18.060Z,9.70
2023-03-24T00:05:45.356Z,9.80
2023-03-24T00:08:12.481Z,9.70
2023-03-24T00:10:40.225Z,9.80
2023-03-24T00:13:07.369Z,9.80
2023-03-24T00:15:34.622Z,9.80
2023-03-24T00:18:01.849Z,9.80
2023-03-24T00:20:29.165Z,9.80
2023-03-24T00:22:58.959Z,9.90
2023-03-24T00:25:36.419Z,9.90
2023-03-24T00:28:06.177Z,9.90
2023-03-24T00:30:35.467Z,9.90
2023-03-24T00:33:04.484Z,9.90
2023-03-24T00:35:32.082Z,9.90
2023-03-24T00:37:59.505Z,9.90
2023-03-24T00:40:28.054Z,9.80
2023-03-24T00:42:55.283Z,9.80
2023-03-24T00:45:25.594Z,9.70
2023-03-24T00:47:58.246Z,9.70
2023-03-24T00:50:29.024Z,9.70
2023-03-24T00:52:58.565Z,9.70
2023-03-24T00:55:28.963Z,9.70
2023-03-24T00:57:56.503Z,9.70
2023-03-24T01:00:26.295Z,9.70
2023-03-24T01:02:57.984Z,9.60
2023-03-24T01:05:28.547Z,9.60
2023-03-24T01:08:05.133Z,9.60
2023-03-24T01:10:50.404Z,9.70
2023-03-24T01:13:18.426Z,9.60
2023-03-24T01:15:45.578Z,9.70
2023-03-24T01:18:15.002Z,9.80
2023-03-24T01:20:47.134Z,9.80
2023-03-24T01:23:20.193Z,9.80
2023-03-24T01:25:48.441Z,9.80
2023-03-24T01:28:18.421Z,9.80
2023-03-24T01:30:45.816Z,9.90
2023-03-24T01:33:13.153Z,9.90
2023-03-24T01:35:40.542Z,9.90
2023-03-24T01:38:09.652Z,9.90
2023-03-24T01:40:39.734Z,10.00
2023-03-24T01:43:09.132Z,10.00
2023-03-24T01:45:42.437Z,10.00
2023-03-24T01:48:21.299Z,10.00
2023-03-24T01:51:15.813Z,10.10
2023-03-24T01:54:01.705Z,10.10
2023-03-24T01:56:32.522Z,10.10
2023-03-24T01:59:04.094Z,10.10
2023-03-24T02:01:32.010Z,10.30
2023-03-24T02:04:04.327Z,10.20
2023-03-24T02:06:35.058Z,10.20
2023-03-24T02:09:04.622Z,10.20
2023-03-24T02:11:35.012Z,10.20
2023-03-24T02:14:03.613Z,10.20
2023-03-24T02:16:40.044Z,10.10
2023-03-24T02:19:16.028Z,10.20
2023-03-24T02:22:07.935Z,10.20
2023-03-24T02:24:50.305Z,10.20
2023-03-24T02:27:30.463Z,10.30
2023-03-24T02:30:31.232Z,10.30
2023-03-24T02:33:10.460Z,10.30
2023-03-24T02:35:52.701Z,10.20
2023-03-24T02:38:41.326Z,10.30
2023-03-24T02:41:30.928Z,10.20
2023-03-24T02:44:16.550Z,10.30
2023-03-24T02:46:52.882Z,10.30
2023-03-24T02:49:23.380Z,10.30
2023-03-24T02:52:01.558Z,10.30
2023-03-24T02:54:57.391Z,10.30
2023-03-24T02:57:36.416Z,10.30
2023-03-24T03:00:35.818Z,10.30
2023-03-24T03:03:13.258Z,10.30
2023-03-24T03:05:49.591Z,10.30
2023-03-24T03:08:21.413Z,10.30
2023-03-24T03:10:50.675Z,10.30
2023-03-24T03:13:44.062Z,10.30
2023-03-24T03:16:38.709Z,10.30
2023-03-24T03:19:12.680Z,10.30
2023-03-24T03:21:44.482Z,10.30
2023-03-24T03:24:27.368Z,10.20
2023-03-24T03:27:05.902Z,10.20
2023-03-24T03:29:38.577Z,10.20
2023-03-24T03:32:09.747Z,10.20
2023-03-24T03:34:45.791Z,10.20
2023-03-24T03:37:30.918Z,10.30
2023-03-24T03:40:09.932Z,10.30
2023-03-24T03:42:37.304Z,10.30
2023-03-24T03:45:05.302Z,10.30
2023-03-24T03:47:33.825Z,10.20
2023-03-24T03:50:02.351Z,10.20
2023-03-24T03:52:30.666Z,10.20
2023-03-24T03:54:59.104Z,10.20
2023-03-24T03:57:27.455Z,10.10
2023-03-24T03:59:54.659Z,10.10
2023-03-24T04:02:52.879Z,10.10
2023-03-24T04:05:36.606Z,10.10
2023-03-24T04:08:30.032Z,10.20
2023-03-24T04:11:28.986Z,10.20
2023-03-24T04:14:16.713Z,10.20
2023-03-24T04:17:25.253Z,10.10
2023-03-24T04:20:05.795Z,10.10
2023-03-24T04:22:38.515Z,10.10
2023-03-24T04:25:27.080Z,10.00
2023-03-24T04:28:14.524Z,10.00
2023-03-24T04:30:46.507Z,9.90
2023-03-24T04:33:25.367Z,9.90
2023-03-24T04:36:06.661Z,9.90
2023-03-24T04:38:36.807Z,9.90
2023-03-24T04:41:05.977Z,9.90
2023-03-24T04:43:36.918Z,9.90
2023-03-24T04:46:06.254Z,9.80
2023-03-24T04:48:33.826Z,9.70
2023-03-24T04:51:03.575Z,9.60
2023-03-24T04:53:30.966Z,9.50
2023-03-24T04:56:04.024Z,9.50
2023-03-24T04:58:31.319Z,9.40
2023-03-24T05:00:58.893Z,9.40
2023-03-24T05:03:26.358Z,9.30
2023-03-24T05:05:53.780Z,9.30
2023-03-24T05:08:21.349Z,9.20
2023-03-24T05:10:48.878Z,9.20
2023-03-24T05:13:16.977Z,9.10
2023-03-24T05:15:44.286Z,9.10
2023-03-24T05:18:12.011Z,9.10
2023-03-24T05:20:39.198Z,9.10
2023-03-24T05:23:06.863Z,9.10
2023-03-24T05:25:34.009Z,9.10
2023-03-24T05:28:01.271Z,9.20
2023-03-24T05:30:28.743Z,9.20
2023-03-24T05:32:55.924Z,9.20
2023-03-24T05:35:23.239Z,9.30
2023-03-24T05:37:50.916Z,9.30
2023-03-24T05:40:18.292Z,9.40
2023-03-24T05:42:45.530Z,9.50
2023-03-24T05:45:12.844Z,9.60
2023-03-24T05:47:40.076Z,9.70
2023-03-24T05:50:07.757Z,9.70
2023-03-24T05:52:36.171Z,9.80
2023-03-24T05:55:03.552Z,9.90
2023-03-24T05:57:30.705Z,10.00
2023-03-24T05:59:58.342Z,10.10
2023-03-24T06:02:25.628Z,10.10
2023-03-24T06:04:53.402Z,10.30
2023-03-24T06:07:20.704Z,10.40
2023-03-24T06:09:51.355Z,10.50
2023-03-24T06:12:22.058Z,10.50
2023-03-24T06:14:49.180Z,10.60
2023-03-24T06:17:16.505Z,10.60
2023-03-24T06:19:50.048Z,10.70
2023-03-24T06:22:18.667Z,10.80
2023-03-24T06:24:50.472Z,11.00
2023-03-24T06:27:19.321Z,11.10
2023-03-24T06:29:46.508Z,11.30
2023-03-24T06:32:13.671Z,11.30
2023-03-24T06:34:40.835Z,11.30
2023-03-24T06:37:08.187Z,11.30
2023-03-24T06:39:35.344Z,11.40
2023-03-24T06:42:02.654Z,11.50
2023-03-24T06:44:29.747Z,11.50
2023-03-24T06:46:56.906Z,11.60
2023-03-24T06:49:24.196Z,11.70
2023-03-24T06:51:51.759Z,11.80
2023-03-24T06:54:18.931Z,12.00
2023-03-24T06:56:46.230Z,12.10
2023-03-24T06:59:13.436Z,12.20
2023-03-24T07:01:40.712Z,12.40
2023-03-24T07:04:07.844Z,12.40
2023-03-24T07:06:43.281Z,12.50
2023-03-24T07:09:19.863Z,12.70
2023-03-24T07:11:47.196Z,12.80
2023-03-24T07:14:14.318Z,13.00
2023-03-24T07:16:41.708Z,13.20
2023-03-24T07:19:08.829Z,13.40
2023-03-24T07:21:35.893Z,13.60
2023-03-24T07:24:03.063Z,13.90
2023-03-24T07:26:30.919Z,14.00
2023-03-24T07:28:58.090Z,14.20
2023-03-24T07:31:25.350Z,14.40
2023-03-24T07:33:52.490Z,14.60
2023-03-24T07:36:19.759Z,14.80
2023-03-24T07:38:46.919Z,15.00
2023-03-24T07:41:14.275Z,15.00
2023-03-24T07:43:41.584Z,14.90
2023-03-24T07:46:09.590Z,15.10
2023-03-24T07:48:43.668Z,15.30
2023-03-24T07:51:10.836Z,15.40
2023-03-24T07:53:38.015Z,15.50
2023-03-24T07:56:05.433Z,15.60
2023-03-24T07:58:32.698Z,15.60
2023-03-24T08:01:00.135Z,15.60
2023-03-24T08:03:28.533Z,15.50
2023-03-24T08:05:55.902Z,15.60
2023-03-24T08:08:22.989Z,15.60
2023-03-24T08:10:51.291Z,15.80
2023-03-24T08:13:18.708Z,16.00
2023-03-24T08:15:46.372Z,16.20
2023-03-24T08:18:13.898Z,16.40
2023-03-24T08:20:41.204Z,16.50
2023-03-24T08:23:08.582Z,16.70
2023-03-24T08:25:39.054Z,16.90
2023-03-24T08:28:06.850Z,17.00
2023-03-24T08:30:34.430Z,17.20
2023-03-24T08:33:03.226Z,17.20
2023-03-24T08:35:39.090Z,17.30
2023-03-24T08:38:07.723Z,17.40
2023-03-24T08:40:37.614Z,17.40
2023-03-24T08:43:08.851Z,17.60
2023-03-24T08:45:37.130Z,17.50
2023-03-24T08:48:06.764Z,17.50
2023-03-24T08:50:38.019Z,17.60
2023-03-24T08:53:05.277Z,17.60
2023-03-24T08:55:32.633Z,17.60
2023-03-24T08:58:00.288Z,17.60
2023-03-24T09:00:29.217Z,17.70
2023-03-24T09:02:57.124Z,17.70
2023-03-24T09:05:40.721Z,17.60
2023-03-24T09:08:12.524Z,17.80
2023-03-24T09:10:41.039Z,17.90
2023-03-24T09:13:08.494Z,17.90
2023-03-24T09:15:35.937Z,18.00
2023-03-24T09:18:03.436Z,18.00
2023-03-24T09:20:30.669Z,18.20
2023-03-24T09:22:57.996Z,18.20
2023-03-24T09:25:25.163Z,18.10
2023-03-24T09:27:52.858Z,18.10
2023-03-24T09:30:20.094Z,18.10
2023-03-24T09:32:47.362Z,18.20
2023-03-24T09:35:15.789Z,18.40
2023-03-24T09:37:44.104Z,18.50
2023-03-24T09:40:24.379Z,18.10
2023-03-24T09:43:03.273Z,17.50
2023-03-24T09:45:44.902Z,17.20
2023-03-24T09:48:27.881Z,17.30
2023-03-24T09:51:04.484Z,17.50
2023-03-24T09:53:49.989Z,17.90
2023-03-24T09:56:20.134Z,17.70
2023-03-24T09:58:54.989Z,17.90
2023-03-24T10:01:22.357Z,17.60
2023-03-24T10:03:49.629Z,17.80
2023-03-24T10:06:42.226Z,18.30
2023-03-24T10:09:29.042Z,18.50
2023-03-24T10:12:18.055Z,19.00
2023-03-24T10:15:30.948Z,19.50
2023-03-24T10:18:22.292Z,19.50
2023-03-24T10:20:55.464Z,19.30
2023-03-24T10:23:49.547Z,19.40
2023-03-24T10:26:44.853Z,19.60
2023-03-24T10:29:32.253Z,19.60
2023-03-24T10:32:23.587Z,19.50
2023-03-24T10:35:00.520Z,19.50
2023-03-24T10:37:30.827Z,19.30
2023-03-24T10:39:58.412Z,19.40
2023-03-24T10:42:28.691Z,19.50
2023-03-24T10:44:56.193Z,19.70
2023-03-24T10:47:27.475Z,19.60
2023-03-24T10:49:59.615Z,20.10
2023-03-24T10:52:27.201Z,20.20
2023-03-24T10:55:03.709Z,20.40
2023-03-24T10:57:31.902Z,20.10
2023-03-24T11:00:16.067Z,20.10
2023-03-24T11:02:43.969Z,19.80
2023-03-24T11:05:22.711Z,19.90
2023-03-24T11:07:51.869Z,20.10
2023-03-24T11:10:25.512Z,20.40
2023-03-24T11:12:55.786Z,20.70
2023-03-24T11:15:23.620Z,20.60
2023-03-24T11:18:08.191Z,20.70
2023-03-24T11:20:52.239Z,20.70
2023-03-24T11:23:25.678Z,20.60
2023-03-24T11:26:14.739Z,20.60
2023-03-24T11:28:57.413Z,20.60
2023-03-24T11:31:33.021Z,20.30
2023-03-24T11:34:01.565Z,20.30
2023-03-24T11:36:33.377Z,20.30
2023-03-24T11:39:08.582Z,20.40
2023-03-24T11:41:57.859Z,20.50
2023-03-24T11:44:26.013Z,20.50
2023-03-24T11:46:58.024Z,20.80
2023-03-24T11:49:32.147Z,20.90
2023-03-24T11:51:59.803Z,20.70
2023-03-24T11:54:36.825Z,20.70
2023-03-24T11:57:12.784Z,20.60
2023-03-24T11:59:58.289Z,20.70
2023-03-24T12:02:47.273Z,20.20
2023-03-24T12:05:41.849Z,19.80
2023-03-24T12:08:35.071Z,19.20
2023-03-24T12:11:36.188Z,18.90
2023-03-24T12:14:05.067Z,18.40
2023-03-24T12:16:43.920Z,18.10
2023-03-24T12:19:14.347Z,17.90
2023-03-24T12:21:59.426Z,17.90
2023-03-24T12:24:47.985Z,17.80
2023-03-24T12:27:27.910Z,17.70
2023-03-24T12:30:26.114Z,17.60
2023-03-24T12:33:20.311Z,17.60
2023-03-24T12:35:52.544Z,17.40
2023-03-24T12:38:29.440Z,17.30
2023-03-24T12:41:40.519Z,17.20
2023-03-24T12:44:31.560Z,17.10
2023-03-24T12:47:04.619Z,17.00
2023-03-24T12:49:40.651Z,16.80
2023-03-24T12:52:29.729Z,16.70
2023-03-24T12:55:06.834Z,16.60
2023-03-24T12:57:48.933Z,16.50
2023-03-24T13:00:31.365Z,16.50
2023-03-24T13:03:10.691Z,16.40
2023-03-24T13:06:07.288Z,16.30
2023-03-24T13:08:49.706Z,16.20
2023-03-24T13:11:32.627Z,16.20
2023-03-24T13:14:03.755Z,16.00
2023-03-24T13:16:36.713Z,15.90
2023-03-24T13:19:14.200Z,15.90
2023-03-24T13:21:43.626Z,15.80
2023-03-24T13:24:15.494Z,15.80
2023-03-24T13:27:04.755Z,15.70
2023-03-24T13:29:50.130Z,15.70
2023-03-24T13:32:29.422Z,15.60
2023-03-24T13:35:21.262Z,15.60
2023-03-24T13:38:18.204Z,15.50
2023-03-24T13:40:51.180Z,15.40
2023-03-24T13:43:24.844Z,15.30
2023-03-24T13:46:00.561Z,15.20
2023-03-24T13:48:39.258Z,15.20
2023-03-24T13:51:19.659Z,15.10
2023-03-24T13:53:59.833Z,14.90
2023-03-24T13:56:39.578Z,14.80
2023-03-24T13:59:19.090Z,14.70
2023-03-24T14:02:42.883Z,14.70
2023-03-24T14:05:36.704Z,14.60
2023-03-24T14:08:05.504Z,14.70
2023-03-24T14:10:47.512Z,14.60
2023-03-24T14:13:14.653Z,14.70
2023-03-24T14:15:56.562Z,14.80
2023-03-24T14:18:23.801Z,14.90
2023-03-24T14:20:57.434Z,14.80
2023-03-24T14:23:38.961Z,14.80
2023-03-24T14:26:15.125Z,14.80
2023-03-24T14:28:46.983Z,14.80
2023-03-24T14:31:15.670Z,14.70
2023-03-24T14:33:55.132Z,14.70
2023-03-24T14:36:40.545Z,14.70
2023-03-24T14:39:35.815Z,14.70
2023-03-24T14:42:22.757Z,14.70
2023-03-24T14:44:51.610Z,14.70
2023-03-24T14:47:31.962Z,14.60
2023-03-24T14:50:03.999Z,14.60
2023-03-24T14:53:18.157Z,14.70
2023-03-24T14:55:47.866Z,14.80
2023-03-24T15:01:45.847Z,14.70
2023-03-24T15:04:25.168Z,14.60
2023-03-24T15:06:52.316Z,14.50
2023-03-24T15:09:19.524Z,14.50
2023-03-24T15:11:48.590Z,14.40
2023-03-24T15:14:21.670Z,14.50
2023-03-24T15:16:58.032Z,14.40
2023-03-24T15:19:30.733Z,14.50
2023-03-24T15:22:13.240Z,14.60
2023-03-24T15:24:46.383Z,14.60
2023-03-24T15:27:26.756Z,14.70
2023-03-24T15:30:01.288Z,14.90
2023-03-24T15:32:31.937Z,15.00
2023-03-24T15:35:05.060Z,15.20
2023-03-24T15:37:40.552Z,15.10
2023-03-24T15:40:30.560Z,15.00
2023-03-24T15:43:03.825Z,14.90
2023-03-24T15:45:33.979Z,14.70
2023-03-24T15:48:16.992Z,14.60
2023-03-24T15:51:00.312Z,14.40
2023-03-24T15:53:39.847Z,14.30
2023-03-24T15:56:18.486Z,14.30
2023-03-24T15:58:53.735Z,14.20
2023-03-24T16:01:27.750Z,14.20
2023-03-24T16:03:55.708Z,14.30
2023-03-24T16:06:35.512Z,14.30
2023-03-24T16:09:08.799Z,14.40
2023-03-24T16:11:36.322Z,14.60
2023-03-24T16:14:21.881Z,14.90
2023-03-24T16:16:49.416Z,15.00
2023-03-24T16:19:16.768Z,15.10
2023-03-24T16:21:44.185Z,15.20
2023-03-24T16:24:11.712Z,15.40
2023-03-24T16:26:48.190Z,15.40
2023-03-24T16:29:18.409Z,15.10
2023-03-24T16:31:50.253Z,14.80
2023-03-24T16:34:21.883Z,14.60
2023-03-24T16:36:51.145Z,14.30
2023-03-24T16:39:23.383Z,14.00
2023-03-24T16:41:51.310Z,13.80
2023-03-24T16:44:18.535Z,13.60
2023-03-24T16:46:47.379Z,13.50
2023-03-24T16:49:17.182Z,13.40
2023-03-24T16:51:45.479Z,13.30
2023-03-24T16:54:12.787Z,13.30
2023-03-24T16:56:40.262Z,13.20
2023-03-24T16:59:08.411Z,13.20
2023-03-24T17:01:41.423Z,13.10
2023-03-24T17:04:13.890Z,12.90
2023-03-24T17:06:45.344Z,12.90
2023-03-24T17:09:12.980Z,13.00
2023-03-24T17:11:43.474Z,13.10
2023-03-24T17:14:12.560Z,13.10
2023-03-24T17:16:45.373Z,13.20
2023-03-24T17:19:17.838Z,13.10
2023-03-24T17:21:49.876Z,13.10
2023-03-24T17:24:18.018Z,13.00
2023-03-24T17:26:45.288Z,13.00
2023-03-24T17:29:13.878Z,12.90
2023-03-24T17:31:43.527Z,12.90
2023-03-24T17:36:46.578Z,12.80
2023-03-24T17:39:20.635Z,12.80
2023-03-24T17:41:48.090Z,12.80
2023-03-24T17:44:16.263Z,12.70
2023-03-24T17:46:44.146Z,12.70
2023-03-24T17:49:11.761Z,12.60
2023-03-24T17:51:39.013Z,12.60
2023-03-24T17:54:06.627Z,12.50
2023-03-24T17:56:34.164Z,12.50
2023-03-24T17:59:04.245Z,12.40
2023-03-24T18:01:35.622Z,12.40
2023-03-24T18:04:03.833Z,12.40
2023-03-24T18:06:31.924Z,12.30
2023-03-24T18:08:59.062Z,12.30
2023-03-24T18:11:26.730Z,12.20
2023-03-24T18:13:59.122Z,12.20
2023-03-24T18:16:32.384Z,12.20
2023-03-24T18:19:01.912Z,12.20
2023-03-24T18:21:29.973Z,12.10
2023-03-24T18:23:57.506Z,12.10
2023-03-24T18:26:26.405Z,12.10
2023-03-24T18:28:58.243Z,12.20
2023-03-24T18:31:26.598Z,12.30
2023-03-24T18:33:55.356Z,12.30
2023-03-24T18:36:27.405Z,12.30
2023-03-24T18:39:01.220Z,12.30
2023-03-24T18:41:31.036Z,12.30
2023-03-24T18:44:00.465Z,12.40
2023-03-24T18:46:28.614Z,12.50
2023-03-24T18:48:58.075Z,12.60
2023-03-24T18:51:27.121Z,12.70
2023-03-24T18:53:55.437Z,12.80
2023-03-24T18:56:23.571Z,12.80
2023-03-24T18:58:53.145Z,12.90
2023-03-24T19:01:25.430Z,13.00
2023-03-24T19:03:54.243Z,12.90
2023-03-24T19:06:23.018Z,12.90
2023-03-24T19:08:53.233Z,12.90
2023-03-24T19:11:21.859Z,12.80
2023-03-24T19:13:51.246Z,12.70
2023-03-24T19:16:23.666Z,12.70
2023-03-24T19:18:51.360Z,12.60
2023-03-24T19:21:25.954Z,12.50
2023-03-24T19:23:54.431Z,12.40
2023-03-24T19:26:28.509Z,12.30
2023-03-24T19:28:58.254Z,12.20
2023-03-24T19:31:26.301Z,12.10
2023-03-24T19:33:55.670Z,12.10
2023-03-24T19:36:26.111Z,11.90
2023-03-24T19:38:54.243Z,11.80
2023-03-24T19:41:27.044Z,11.70
2023-03-24T19:43:55.382Z,11.60
2023-03-24T19:46:23.876Z,11.50
2023-03-24T19:48:52.604Z,11.50
2023-03-24T19:51:21.961Z,11.40
2023-03-24T19:53:50.135Z,11.40
2023-03-24T19:56:19.971Z,11.40
2023-03-24T19:58:48.121Z,11.40
2023-03-24T20:01:15.841Z,11.40
2023-03-24T20:03:43.697Z,11.40
2023-03-24T20:06:11.828Z,11.40
2023-03-24T20:08:40.159Z,11.40
2023-03-24T20:11:11.150Z,11.30
2023-03-24T20:13:39.112Z,11.30
2023-03-24T20:16:08.673Z,11.30
2023-03-24T20:18:39.788Z,11.30
2023-03-24T20:21:09.848Z,11.30
2023-03-24T20:23:38.473Z,11.30
2023-03-24T20:26:06.416Z,11.30
2023-03-24T20:28:34.337Z,11.30
2023-03-24T20:31:04.887Z,11.20
2023-03-24T20:33:33.693Z,11.20
2023-03-24T20:36:03.661Z,11.20
2023-03-24T20:38:32.267Z,11.20
2023-03-24T20:41:07.658Z,11.20
2023-03-24T20:43:37.601Z,11.20
2023-03-24T20:46:11.721Z,11.20
2023-03-24T20:48:40.432Z,11.20
2023-03-24T20:51:08.690Z,11.30
2023-03-24T20:53:37.180Z,11.30
2023-03-24T20:56:08.413Z,11.40
2023-03-24T20:58:39.168Z,11.40
2023-03-24T21:01:08.257Z,11.40
2023-03-24T21:03:37.946Z,11.30
2023-03-24T21:06:06.767Z,11.30
2023-03-24T21:08:38.535Z,11.20
2023-03-24T21:11:07.724Z,11.20
2023-03-24T21:13:37.991Z,11.20
2023-03-24T21:16:09.074Z,11.30
2023-03-24T21:18:38.885Z,11.40
2023-03-24T21:21:07.051Z,11.50
2023-03-24T21:23:39.459Z,11.50
2023-03-24T21:26:14.122Z,11.50
2023-03-24T21:28:42.229Z,11.60
2023-03-24T21:31:17.145Z,11.50
2023-03-24T21:33:44.753Z,11.40
2023-03-24T21:36:12.715Z,11.30
2023-03-24T21:38:40.470Z,11.30
2023-03-24T21:41:08.514Z,11.20
2023-03-24T21:43:36.507Z,11.10
2023-03-24T21:46:04.488Z,11.10
2023-03-24T21:48:38.936Z,11.10
2023-03-24T21:51:06.034Z,11.20
2023-03-24T21:53:35.051Z,11.20
2023-03-24T21:56:05.019Z,11.20
2023-03-24T21:58:33.749Z,11.10
2023-03-24T22:01:01.807Z,11.20
2023-03-24T22:03:29.033Z,11.20
2023-03-24T22:05:57.472Z,11.20
2023-03-24T22:08:27.099Z,11.20
2023-03-24T22:10:58.962Z,11.20
2023-03-24T22:13:29.433Z,11.20
2023-03-24T22:15:59.000Z,11.30
2023-03-24T22:18:28.068Z,11.30
2023-03-24T22:21:04.623Z,11.20
2023-03-24T22:23:34.571Z,11.20
2023-03-24T22:26:04.258Z,11.20
2023-03-24T22:28:34.311Z,11.10
2023-03-24T22:31:03.211Z,11.10
2023-03-24T22:33:30.345Z,11.20
2023-03-24T22:35:58.561Z,11.20
2023-03-24T22:38:26.668Z,11.20
2023-03-24T22:40:58.417Z,11.10
2023-03-24T22:43:26.521Z,11.10
2023-03-24T22:45:53.620Z,11.20
2023-03-24T22:48:21.239Z,11.10
2023-03-24T22:50:48.786Z,11.10
2023-03-24T22:53:16.354Z,11.00
2023-03-24T22:55:45.057Z,11.00
2023-03-24T22:58:15.603Z,11.00
2023-03-24T23:00:44.216Z,11.00
2023-03-24T23:03:12.124Z,11.00
2023-03-24T23:05:48.408Z,10.90
2023-03-24T23:08:16.409Z,10.90
2023-03-24T23:10:45.659Z,10.90
2023-03-24T23:13:12.902Z,10.90
2023-03-24T23:15:42.883Z,10.90
2023-03-24T23:18:10.887Z,10.90
2023-03-24T23:20:38.140Z,10.90
2023-03-24T23:23:07.063Z,11.00
2023-03-24T23:25:43.415Z,11.10
2023-03-24T23:28:12.268Z,11.10
2023-03-24T23:30:40.772Z,11.10
2023-03-24T23:33:08.311Z,11.10
2023-03-24T23:35:37.731Z,11.20
2023-03-24T23:38:05.591Z,11.20
2023-03-24T23:40:32.699Z,11.20
2023-03-24T23:42:59.974Z,11.30
2023-03-24T23:45:27.627Z,11.30
2023-03-24T23:47:55.070Z,11.40
2023-03-24T23:50:22.224Z,11.40
2023-03-24T23:52:49.329Z,11.40
2023-03-24T23:55:18.359Z,11.40
2023-03-24T23:57:46.832Z,11.40
